createdAt,value
2019-03-08T00:00:35.278Z,2.20
2019-03-08T00:03:04.879Z,3.05
2019-03-08T00:05:33.904Z,3.75
2019-03-08T00:08:02.801Z,2.47
2019-03-08T00:10:31.808Z,2.62
2019-03-08T00:13:00.819Z,2.92
2019-03-08T00:15:29.806Z,2.60
2019-03-08T00:17:58.715Z,3.05
2019-03-08T00:20:27.608Z,2.50
2019-03-08T00:22:56.604Z,2.22
2019-03-08T00:25:25.615Z,2.00
2019-03-08T00:27:54.594Z,2.50
2019-03-08T00:30:23.520Z,2.15
2019-03-08T00:32:52.399Z,2.10
2019-03-08T00:35:21.334Z,2.98
2019-03-08T00:37:50.282Z,2.08
2019-03-08T00:40:19.241Z,2.27
2019-03-08T00:42:48.143Z,2.08
2019-03-08T00:45:20.310Z,2.12
2019-03-08T00:47:49.297Z,2.40
2019-03-08T00:50:18.312Z,1.87
2019-03-08T00:52:47.205Z,2.20
2019-03-08T00:55:16.219Z,2.55
2019-03-08T00:57:45.160Z,2.30
2019-03-08T01:00:19.269Z,3.00
2019-03-08T01:02:48.488Z,2.22
2019-03-08T01:05:18.366Z,2.30
2019-03-08T01:07:47.371Z,2.05
2019-03-08T01:10:21.373Z,2.58
2019-03-08T01:12:50.322Z,3.62
2019-03-08T01:15:19.555Z,1.60
2019-03-08T01:17:48.581Z,1.52
2019-03-08T01:20:21.046Z,2.05
2019-03-08T01:22:50.206Z,1.70
2019-03-08T01:25:21.483Z,2.10
2019-03-08T01:27:58.573Z,2.80
2019-03-08T01:30:27.557Z,3.35
2019-03-08T01:32:56.438Z,1.87
2019-03-08T01:35:25.495Z,2.30
2019-03-08T01:37:55.028Z,1.85
2019-03-08T01:40:23.982Z,1.95
2019-03-08T01:42:52.834Z,2.22
2019-03-08T01:45:21.908Z,2.08
2019-03-08T01:47:50.919Z,1.52
2019-03-08T01:50:20.012Z,1.80
2019-03-08T01:52:48.925Z,1.92
2019-03-08T01:55:17.954Z,1.65
2019-03-08T01:57:46.850Z,2.00
2019-03-08T02:00:18.577Z,2.17
2019-03-08T02:02:47.575Z,1.62
2019-03-08T02:05:17.346Z,2.02
2019-03-08T02:07:46.346Z,3.25
2019-03-08T02:10:16.980Z,1.77
2019-03-08T02:12:46.079Z,2.12
2019-03-08T02:15:17.413Z,1.60
2019-03-08T02:17:46.286Z,1.15
2019-03-08T02:20:22.914Z,1.87
2019-03-08T02:22:51.870Z,1.80
2019-03-08T02:25:20.762Z,1.47
2019-03-08T02:27:49.704Z,1.35
2019-03-08T02:30:19.287Z,1.60
2019-03-08T02:32:48.226Z,0.98
2019-03-08T02:35:19.650Z,1.10
2019-03-08T02:37:48.554Z,1.20
2019-03-08T02:40:32.327Z,1.12
2019-03-08T02:43:02.511Z,2.02
2019-03-08T02:45:31.554Z,1.45
2019-03-08T02:48:00.446Z,1.80
2019-03-08T02:50:29.501Z,1.57
2019-03-08T02:52:58.440Z,2.00
2019-03-08T02:55:27.340Z,1.67
2019-03-08T02:57:56.317Z,1.45
2019-03-08T03:00:28.523Z,1.57
2019-03-08T03:02:57.454Z,2.50
2019-03-08T03:05:26.446Z,2.17
2019-03-08T03:07:55.366Z,1.22
2019-03-08T03:10:24.791Z,2.02
2019-03-08T03:12:53.881Z,1.50
2019-03-08T03:15:22.972Z,1.55
2019-03-08T03:17:51.852Z,1.27
2019-03-08T03:20:20.947Z,1.70
2019-03-08T03:22:49.975Z,1.60
2019-03-08T03:25:18.979Z,1.40
2019-03-08T03:27:47.905Z,1.40
2019-03-08T03:30:19.144Z,0.90
2019-03-08T03:32:48.086Z,1.92
2019-03-08T03:35:17.222Z,2.62
2019-03-08T03:37:46.690Z,1.22
2019-03-08T03:40:19.714Z,1.20
2019-03-08T03:42:48.675Z,0.93
2019-03-08T03:45:21.081Z,0.98
2019-03-08T03:47:50.109Z,0.90
2019-03-08T03:50:19.065Z,2.30
2019-03-08T03:52:48.004Z,1.60
2019-03-08T03:55:18.004Z,0.93
2019-03-08T03:57:47.310Z,1.87
2019-03-08T04:00:24.429Z,1.07
2019-03-08T04:02:53.765Z,1.17
2019-03-08T04:05:22.814Z,1.67
2019-03-08T04:07:51.689Z,1.85
2019-03-08T04:10:20.730Z,1.17
2019-03-08T04:12:49.689Z,1.25
2019-03-08T04:15:22.294Z,1.32
2019-03-08T04:17:51.243Z,1.47
2019-03-08T04:20:20.926Z,1.20
2019-03-08T04:22:49.862Z,0.88
2019-03-08T04:25:18.892Z,0.70
2019-03-08T04:27:47.953Z,1.15
2019-03-08T04:30:24.148Z,0.90
2019-03-08T04:32:53.082Z,1.00
2019-03-08T04:35:22.093Z,0.88
2019-03-08T04:37:50.977Z,1.42
2019-03-08T04:40:20.009Z,0.70
2019-03-08T04:42:48.878Z,1.20
2019-03-08T04:45:17.986Z,1.20
2019-03-08T04:47:46.966Z,1.00
2019-03-08T04:50:16.751Z,0.80
2019-03-08T04:52:45.755Z,1.40
2019-03-08T04:55:17.496Z,1.00
2019-03-08T04:57:47.397Z,0.80
2019-03-08T05:00:17.790Z,1.32
2019-03-08T05:02:46.676Z,1.00
2019-03-08T05:05:15.750Z,0.93
2019-03-08T05:07:44.802Z,0.70
2019-03-08T05:10:18.500Z,1.67
2019-03-08T05:12:47.430Z,0.88
2019-03-08T05:15:16.540Z,1.15
2019-03-08T05:17:45.501Z,1.22
2019-03-08T05:20:14.479Z,0.78
2019-03-08T05:22:43.395Z,0.93
2019-03-08T05:25:13.939Z,0.75
2019-03-08T05:27:42.916Z,1.30
2019-03-08T05:30:16.719Z,0.60
2019-03-08T05:32:45.605Z,1.00
2019-03-08T05:35:18.097Z,0.70
2019-03-08T05:37:47.067Z,0.80
2019-03-08T05:40:28.863Z,1.10
2019-03-08T05:42:57.880Z,0.65
2019-03-08T05:45:26.826Z,1.40
2019-03-08T05:47:55.713Z,0.90
2019-03-08T05:50:24.942Z,1.02
2019-03-08T05:52:53.873Z,0.72
2019-03-08T05:55:22.814Z,0.65
2019-03-08T05:57:51.755Z,1.10
2019-03-08T06:00:31.930Z,0.90
2019-03-08T06:02:55.790Z,1.02
2019-03-08T06:05:24.939Z,1.05
2019-03-08T06:07:53.837Z,0.93
2019-03-08T06:10:30.608Z,0.60
2019-03-08T06:13:00.386Z,0.90
2019-03-08T06:15:29.416Z,1.55
2019-03-08T06:17:59.212Z,1.10
2019-03-08T06:20:28.374Z,0.70
2019-03-08T06:22:57.412Z,1.10
2019-03-08T06:25:26.519Z,0.80
2019-03-08T06:27:55.463Z,0.80
2019-03-08T06:30:24.334Z,0.80
2019-03-08T06:32:53.923Z,0.80
2019-03-08T06:35:22.854Z,0.90
2019-03-08T06:37:51.795Z,1.02
2019-03-08T06:40:20.669Z,1.62
2019-03-08T06:42:49.555Z,0.95
2019-03-08T06:45:18.987Z,1.05
2019-03-08T06:47:49.462Z,1.00
2019-03-08T06:50:19.182Z,1.00
2019-03-08T06:52:48.230Z,0.98
2019-03-08T06:55:18.879Z,1.42
2019-03-08T06:57:51.143Z,1.00
2019-03-08T07:00:23.651Z,1.10
2019-03-08T07:02:52.568Z,0.80
2019-03-08T07:05:21.445Z,1.15
2019-03-08T07:07:50.398Z,1.45
2019-03-08T07:10:19.337Z,1.07
2019-03-08T07:12:48.806Z,0.80
2019-03-08T07:15:18.434Z,1.12
2019-03-08T07:17:47.451Z,0.85
2019-03-08T07:20:19.233Z,0.90
2019-03-08T07:22:49.754Z,0.85
2019-03-08T07:25:36.961Z,0.95
2019-03-08T07:28:11.011Z,1.00
2019-03-08T07:30:47.578Z,1.12
2019-03-08T07:33:18.780Z,0.82
2019-03-08T07:35:58.742Z,1.02
2019-03-08T07:38:38.195Z,0.60
2019-03-08T07:41:11.386Z,0.88
2019-03-08T07:43:48.174Z,1.55
2019-03-08T07:46:18.696Z,0.98
2019-03-08T07:48:49.202Z,1.75
2019-03-08T07:51:22.752Z,0.60
2019-03-08T07:53:56.090Z,1.20
2019-03-08T07:56:33.011Z,1.20
2019-03-08T07:59:09.408Z,1.20
2019-03-08T08:01:52.514Z,0.93
2019-03-08T08:04:39.433Z,1.22
2019-03-08T08:07:24.866Z,1.15
2019-03-08T08:10:13.210Z,0.70
2019-03-08T08:12:58.617Z,0.70
2019-03-08T08:15:40.848Z,0.80
2019-03-08T08:18:11.573Z,0.85
2019-03-08T08:20:44.916Z,1.95
2019-03-08T08:23:18.681Z,0.98
2019-03-08T08:25:49.201Z,0.90
2019-03-08T08:28:19.777Z,1.02
2019-03-08T08:31:02.598Z,1.00
2019-03-08T08:33:42.042Z,1.25
2019-03-08T08:36:30.545Z,0.98
2019-03-08T08:39:13.013Z,1.00
2019-03-08T08:41:46.360Z,0.93
2019-03-08T08:44:16.872Z,0.88
2019-03-08T08:46:50.171Z,0.75
2019-03-08T08:49:23.938Z,0.82
2019-03-08T08:51:54.407Z,1.30
2019-03-08T08:54:24.959Z,0.70
2019-03-08T08:57:11.922Z,0.95
2019-03-08T08:59:59.105Z,0.80
2019-03-08T09:02:46.093Z,1.10
2019-03-08T09:05:22.763Z,0.93
2019-03-08T09:07:53.359Z,0.78
2019-03-08T09:10:40.082Z,1.20
2019-03-08T09:13:16.586Z,1.07
2019-03-08T09:15:53.067Z,0.95
2019-03-08T09:18:26.547Z,1.00
2019-03-08T09:21:09.300Z,1.72
2019-03-08T09:23:42.853Z,1.20
2019-03-08T09:26:22.338Z,1.00
2019-03-08T09:29:01.808Z,1.20
2019-03-08T09:31:32.534Z,0.90
2019-03-08T09:34:12.113Z,1.10
2019-03-08T09:36:51.635Z,1.25
2019-03-08T09:39:34.299Z,1.10
2019-03-08T09:42:07.823Z,1.45
2019-03-08T09:44:41.066Z,1.50
2019-03-08T09:47:20.475Z,1.65
2019-03-08T09:49:59.448Z,1.25
2019-03-08T09:52:29.972Z,1.12
2019-03-08T09:55:00.671Z,1.70
2019-03-08T09:57:43.101Z,1.10
2019-03-08T10:00:15.907Z,1.20
2019-03-08T10:02:49.368Z,1.50
2019-03-08T10:05:38.183Z,1.10
2019-03-08T10:08:26.996Z,1.37
2019-03-08T10:10:57.461Z,1.12
2019-03-08T10:13:33.525Z,0.85
2019-03-08T10:16:06.527Z,1.10
2019-03-08T10:18:48.976Z,1.22
2019-03-08T10:21:25.446Z,1.55
2019-03-08T10:23:55.969Z,1.07
2019-03-08T10:26:35.741Z,1.07
2019-03-08T10:29:06.246Z,1.12
2019-03-08T10:31:42.999Z,1.32
2019-03-08T10:34:25.838Z,0.90
2019-03-08T10:37:05.391Z,1.02
2019-03-08T10:39:50.872Z,1.95
2019-03-08T10:42:36.236Z,1.22
2019-03-08T10:45:08.706Z,1.05
2019-03-08T10:50:58.865Z,1.20
2019-03-08T10:58:02.439Z,1.30
2019-03-08T11:07:21.190Z,1.00
2019-03-08T11:11:17.717Z,1.30
2019-03-08T11:16:27.060Z,1.10
2019-03-08T11:19:08.972Z,0.90
2019-03-08T11:22:06.015Z,1.52
2019-03-08T11:24:57.615Z,1.07
2019-03-08T11:27:55.012Z,0.90
2019-03-08T11:30:53.809Z,1.20
2019-03-08T11:34:04.181Z,0.98
2019-03-08T11:36:38.804Z,1.00
2019-03-08T11:39:40.606Z,1.20
2019-03-08T11:42:32.547Z,0.80
2019-03-08T11:45:26.225Z,1.22
2019-03-08T11:48:23.812Z,1.30
2019-03-08T11:51:11.211Z,0.98
2019-03-08T11:53:41.732Z,1.10
2019-03-08T11:59:09.127Z,1.20
2019-03-08T12:02:45.621Z,1.30
2019-03-08T12:05:02.579Z,1.60
2019-03-08T12:07:49.656Z,2.55
2019-03-08T12:23:42.478Z,1.30
2019-03-08T12:26:32.966Z,1.57
2019-03-08T12:29:09.515Z,2.35
2019-03-08T12:31:59.586Z,1.62
2019-03-08T12:34:48.504Z,1.40
2019-03-08T12:37:29.710Z,1.45
2019-03-08T12:40:02.948Z,1.50
2019-03-08T12:42:39.489Z,1.52
2019-03-08T12:45:18.202Z,1.42
2019-03-08T12:48:04.055Z,1.27
2019-03-08T12:50:49.742Z,1.75
2019-03-08T12:53:20.464Z,1.50
2019-03-08T12:55:59.898Z,1.30
2019-03-08T12:58:30.512Z,2.20
2019-03-08T13:01:00.972Z,1.90
2019-03-08T13:03:31.533Z,1.60
2019-03-08T13:06:07.650Z,2.33
2019-03-08T13:08:38.185Z,1.60
2019-03-08T13:11:07.193Z,1.82
2019-03-08T13:13:36.081Z,1.47
2019-03-08T13:16:05.401Z,1.60
2019-03-08T13:18:34.388Z,1.57
2019-03-08T13:21:03.356Z,1.62
2019-03-08T13:23:32.365Z,1.80
2019-03-08T13:26:01.369Z,1.32
2019-03-08T13:28:30.284Z,1.40
2019-03-08T13:30:59.227Z,1.20
2019-03-08T13:33:28.253Z,1.10
2019-03-08T13:35:57.227Z,1.55
2019-03-08T13:38:26.149Z,1.10
2019-03-08T13:40:55.087Z,1.00
2019-03-08T13:43:23.989Z,1.10
2019-03-08T13:46:00.394Z,1.20
2019-03-08T13:48:31.146Z,0.95
2019-03-08T13:51:01.694Z,1.32
2019-03-08T13:53:30.649Z,0.98
2019-03-08T13:55:59.545Z,1.12
2019-03-08T13:58:28.699Z,0.88
2019-03-08T14:00:57.603Z,0.60
2019-03-08T14:03:26.478Z,0.60
2019-03-08T14:05:55.469Z,0.90
2019-03-08T14:08:24.364Z,0.70
2019-03-08T14:10:53.291Z,0.70
2019-03-08T14:13:22.427Z,0.72
2019-03-08T14:15:51.362Z,1.45
2019-03-08T14:18:20.295Z,0.93
2019-03-08T14:20:49.220Z,1.12
2019-03-08T14:23:18.239Z,0.90
2019-03-08T14:25:47.136Z,1.15
2019-03-08T14:28:16.034Z,1.20
2019-03-08T14:30:46.544Z,1.10
2019-03-08T14:33:15.419Z,1.32
2019-03-08T14:35:44.501Z,0.98
2019-03-08T14:38:13.389Z,1.30
2019-03-08T14:40:44.020Z,1.35
2019-03-08T14:43:20.323Z,1.30
2019-03-08T14:45:53.903Z,1.20
2019-03-08T14:48:22.775Z,1.30
2019-03-08T14:50:51.766Z,1.55
2019-03-08T14:53:20.638Z,2.10
2019-03-08T14:55:49.586Z,1.80
2019-03-08T14:58:18.463Z,2.08
2019-03-08T15:00:47.474Z,1.77
2019-03-08T15:03:16.380Z,2.30
2019-03-08T15:05:47.122Z,1.72
2019-03-08T15:08:17.817Z,1.40
2019-03-08T15:10:47.658Z,1.65
2019-03-08T15:13:20.066Z,1.50
2019-03-08T15:15:48.003Z,1.60
2019-03-08T15:18:17.372Z,2.17
2019-03-08T15:20:46.254Z,1.80
2019-03-08T15:23:17.135Z,2.00
2019-03-08T15:25:49.065Z,1.55
2019-03-08T15:28:16.412Z,1.87
2019-03-08T15:30:45.821Z,1.22
2019-03-08T15:33:14.769Z,1.32
2019-03-08T15:35:43.807Z,1.07
2019-03-08T15:38:12.749Z,1.20
2019-03-08T15:40:41.707Z,1.50
2019-03-08T15:43:13.611Z,1.37
2019-03-08T15:45:44.678Z,1.20
2019-03-08T15:48:14.584Z,1.30
2019-03-08T15:50:42.853Z,1.50
2019-03-08T15:53:12.821Z,1.50
2019-03-08T15:55:52.264Z,1.30
2019-03-08T15:58:12.853Z,1.10
2019-03-08T16:00:41.862Z,1.10
2019-03-08T16:03:10.831Z,1.30
2019-03-08T16:05:39.700Z,1.80
2019-03-08T16:08:08.669Z,1.37
2019-03-08T16:10:37.612Z,1.60
2019-03-08T16:13:06.686Z,1.30
2019-03-08T16:15:36.099Z,1.10
2019-03-08T16:18:05.204Z,1.22
2019-03-08T16:20:37.261Z,1.17
2019-03-08T16:23:06.508Z,1.40
2019-03-08T16:25:35.343Z,1.00
2019-03-08T16:28:04.327Z,1.02
2019-03-08T16:33:23.198Z,1.07
2019-03-08T16:35:58.406Z,1.05
2019-03-08T16:38:46.663Z,1.20
2019-03-08T16:41:22.687Z,0.90
2019-03-08T16:43:58.452Z,0.98
2019-03-08T16:46:34.279Z,1.10
2019-03-08T16:49:14.784Z,0.85
2019-03-08T16:52:02.002Z,0.85
2019-03-08T16:54:35.140Z,0.80
2019-03-08T16:57:20.590Z,0.85
2019-03-08T16:59:54.003Z,0.93
2019-03-08T17:02:24.503Z,0.95
2019-03-08T17:05:03.790Z,1.00
2019-03-08T17:07:34.460Z,0.93
2019-03-08T17:10:08.174Z,0.62
2019-03-08T17:12:41.759Z,0.65
2019-03-08T17:15:12.567Z,0.90
2019-03-08T17:17:54.938Z,0.80
2019-03-08T17:20:37.318Z,0.98
2019-03-08T17:23:11.040Z,0.90
2019-03-08T17:25:47.716Z,0.68
2019-03-08T17:28:20.954Z,0.82
2019-03-08T17:31:07.021Z,0.60
2019-03-08T17:33:55.312Z,0.80
2019-03-08T17:36:25.862Z,0.80
2019-03-08T17:38:56.397Z,0.88
2019-03-08T17:41:29.871Z,0.80
2019-03-08T17:44:03.591Z,1.20
2019-03-08T17:46:52.207Z,0.93
2019-03-08T17:49:22.781Z,1.00
2019-03-08T17:51:53.311Z,1.00
2019-03-08T17:54:39.208Z,1.00
2019-03-08T17:57:25.338Z,0.78
2019-03-08T18:00:01.719Z,0.80
2019-03-08T18:02:37.835Z,1.10
2019-03-08T18:05:11.870Z,0.80
2019-03-08T18:07:54.245Z,0.90
2019-03-08T18:10:30.947Z,0.93
2019-03-08T18:13:01.584Z,0.70
2019-03-08T18:15:32.207Z,0.70
2019-03-08T18:18:02.787Z,0.80
2019-03-08T18:20:33.314Z,0.80
2019-03-08T18:23:20.109Z,0.55
2019-03-08T18:25:58.082Z,0.60
2019-03-08T18:28:44.970Z,0.47
2019-03-08T18:31:15.914Z,0.60
2019-03-08T18:33:46.475Z,0.42
2019-03-08T18:36:21.511Z,0.47
2019-03-08T18:39:07.250Z,0.37
2019-03-08T18:41:38.054Z,0.50
2019-03-08T18:44:14.505Z,0.50
2019-03-08T18:47:01.800Z,0.55
2019-03-08T18:49:44.734Z,0.60
2019-03-08T18:52:30.404Z,0.60
2019-03-08T18:55:07.292Z,0.40
2019-03-08T18:57:42.339Z,0.50
2019-03-08T19:00:31.429Z,0.55
2019-03-08T19:03:12.178Z,0.50
2019-03-08T19:06:00.421Z,0.40
2019-03-08T19:08:33.695Z,0.60
2019-03-08T19:11:13.207Z,0.72
2019-03-08T19:13:43.791Z,0.40
2019-03-08T19:16:23.409Z,0.75
2019-03-08T19:19:09.066Z,0.60
2019-03-08T19:21:48.884Z,0.45
2019-03-08T19:24:21.969Z,0.60
2019-03-08T19:26:52.480Z,0.50
2019-03-08T19:29:22.952Z,0.60
2019-03-08T19:31:55.979Z,0.50
2019-03-08T19:34:34.937Z,0.70
2019-03-08T19:37:11.186Z,0.57
2019-03-08T19:39:41.721Z,0.50
2019-03-08T19:42:18.115Z,0.45
2019-03-08T19:44:54.462Z,0.62
2019-03-08T19:47:27.729Z,0.65
2019-03-08T19:50:14.895Z,0.50
2019-03-08T19:52:51.529Z,0.70
2019-03-08T19:55:22.222Z,0.70
2019-03-08T19:58:01.741Z,0.75
2019-03-08T20:00:35.032Z,0.80
2019-03-08T20:03:21.561Z,0.60
2019-03-08T20:05:52.439Z,0.75
2019-03-08T20:18:46.111Z,0.45
2019-03-08T20:21:31.875Z,0.50
2019-03-08T20:24:03.690Z,0.62
2019-03-08T20:26:40.031Z,0.30
2019-03-08T20:29:16.259Z,0.40
2019-03-08T20:31:59.524Z,0.37
2019-03-08T20:34:39.290Z,0.37
2019-03-08T20:37:25.285Z,0.30
2019-03-08T20:40:16.739Z,0.40
2019-03-08T20:42:56.919Z,0.40
2019-03-08T20:45:33.836Z,0.35
2019-03-08T20:48:02.831Z,0.50
2019-03-08T20:50:31.882Z,0.25
2019-03-08T20:53:01.056Z,0.35
2019-03-08T20:55:31.678Z,0.30
2019-03-08T20:58:00.826Z,0.30
2019-03-08T21:00:29.758Z,0.30
2019-03-08T21:02:58.733Z,0.47
2019-03-08T21:05:27.907Z,0.42
2019-03-08T21:07:57.149Z,0.60
2019-03-08T21:10:26.135Z,1.02
2019-03-08T21:12:55.286Z,1.00
2019-03-08T21:15:25.603Z,1.82
2019-03-08T21:17:54.823Z,1.70
2019-03-08T21:20:23.765Z,1.70
2019-03-08T21:22:52.785Z,1.70
2019-03-08T21:25:21.749Z,1.30
2019-03-08T21:27:50.646Z,1.90
2019-03-08T21:30:20.962Z,2.12
2019-03-08T21:32:49.838Z,1.70
2019-03-08T21:35:22.540Z,1.60
2019-03-08T21:37:59.998Z,1.98
2019-03-08T21:43:44.753Z,1.47
2019-03-08T21:46:20.364Z,1.55
2019-03-08T21:49:06.707Z,1.40
2019-03-08T21:51:56.094Z,1.22
2019-03-08T21:54:28.494Z,1.30
2019-03-08T21:57:01.923Z,1.52
2019-03-08T21:59:36.565Z,1.10
2019-03-08T22:02:06.029Z,1.55
2019-03-08T22:05:10.099Z,1.90
2019-03-08T22:07:22.058Z,1.87
2019-03-08T22:10:10.957Z,1.50
2019-03-08T22:12:39.996Z,1.70
2019-03-08T22:15:19.374Z,1.60
2019-03-08T22:19:34.857Z,1.95
2019-03-08T22:20:36.172Z,1.70
2019-03-08T22:23:09.817Z,2.17
2019-03-08T22:29:07.283Z,2.58
2019-03-08T22:31:36.216Z,1.17
2019-03-08T22:34:05.707Z,2.25
2019-03-08T22:36:51.451Z,1.45
2019-03-08T22:45:50.065Z,1.77
2019-03-08T22:48:47.012Z,1.20
2019-03-08T22:57:21.483Z,1.57
2019-03-08T23:00:14.110Z,1.10
2019-03-08T23:03:00.530Z,1.72
2019-03-08T23:08:44.469Z,2.00
2019-03-08T23:13:57.858Z,1.87
2019-03-08T23:17:13.401Z,1.15
2019-03-08T23:20:03.077Z,1.35
2019-03-08T23:20:42.110Z,1.82
2019-03-08T23:25:11.210Z,1.77
2019-03-08T23:27:41.694Z,2.15
2019-03-08T23:30:12.746Z,1.47
2019-03-08T23:32:42.985Z,1.57
2019-03-08T23:35:11.924Z,1.75
2019-03-08T23:37:41.680Z,1.52
2019-03-08T23:40:11.104Z,1.20
2019-03-08T23:42:40.070Z,1.30
2019-03-08T23:45:10.158Z,1.40
2019-03-08T23:47:39.105Z,1.40
2019-03-08T23:50:09.490Z,1.30
2019-03-08T23:52:38.462Z,1.70
2019-03-08T23:55:10.144Z,1.40
2019-03-08T23:57:39.150Z,1.70
